Red Hill, South Carolina
Current Conditions -  °F | °C
As of 3:35 PM on Thursday 29 Jan 2015 (Local Time) from KCDN Reporting Station
Clear Clear  
Wind Chill: 54°   Ceiling: Unl
Heat Index: 54°   Visibility: 8mi
Dew Point: 19°   Wind: 6mph
Humidity: 26%   Direction: 220°SW
Pressure: 30.21"   Gusts: NA
Location:  34.2974°N, 80.6089°W
Report Text: KCDN 292035Z AUTO 22005KT 8SM CLR 12/M07 A3021 RMK AO2 TSNO
Loading
Personal Weather Stations






























Interactive Weather Map New forecast layout! Learn more

10-Day Weather Forecast

Advertisements
Track Severe Weather on mobile